Time;durP1;ratioP1;P1;durP2;ratioP2;P2;SDS_P1;SDS_P2;PMS_P1;PMS_P2;Temp;Humidity;BMP_temperature;BMP_pressure;BME280_temperature;BME280_humidity;BME280_pressure;Samples;Min_cycle;Max_cycle;Signal;HPM_P1;HPM_P2
2022/02/01 00:07:14;;;;;;;3.23;0.60;;;;;;;;;;21080774;28;20424;-57
2022/02/01 00:37:52;;;;;;;1.00;0.63;;;;;;;;;;21078837;28;20131;-54
2022/02/01 00:47:54;;;;;;;1.73;0.60;;;;;;;;;;21090593;28;20052;-59
2022/02/01 00:57:56;;;;;;;0.70;0.57;;;;;;;;;;21095345;28;20063;-57
2022/02/01 01:07:58;;;;;;;0.95;0.50;;;;;;;;;;21094250;28;20389;-55
2022/02/01 01:43:30;;;;;;;0.60;0.60;;;;;;;;;;21091253;28;20116;-55
2022/02/01 01:59:29;;;;;;;2.45;0.60;;;;;;;;;;21092686;28;20051;-59
2022/02/01 02:09:31;;;;;;;1.58;0.70;;;;;;;;;;21089746;28;20051;-59
2022/02/01 02:19:34;;;;;;;0.95;0.60;;;;;;;;;;21089288;28;20048;-58
2022/02/01 02:29:36;;;;;;;0.50;0.50;;;;;;;;;;21088828;28;20052;-60
2022/02/01 02:40:01;;;;;;;1.77;1.15;;;;;;;;;;21087444;28;20456;-60
2022/02/01 02:50:04;;;;;;;0.95;0.47;;;;;;;;;;21086615;28;20139;-60
2022/02/01 03:00:06;;;;;;;0.95;0.75;;;;;;;;;;21085286;28;20146;-56
2022/02/01 03:10:08;;;;;;;2.97;1.40;;;;;;;;;;21084504;28;20473;-56
2022/02/01 03:20:10;;;;;;;0.88;0.50;;;;;;;;;;21084680;28;20385;-54
2022/02/01 03:30:32;;;;;;;1.00;0.50;;;;;;;;;;21083576;28;20048;-53
2022/02/01 03:40:53;;;;;;;1.98;0.40;;;;;;;;;;21083336;28;20450;-55
2022/02/01 03:51:15;;;;;;;0.93;0.70;;;;;;;;;;21080702;28;20051;-53
2022/02/01 04:01:37;;;;;;;1.08;0.60;;;;;;;;;;21081688;28;20056;-59
2022/02/01 04:12:00;;;;;;;2.28;0.75;;;;;;;;;;21080173;28;20044;-59
2022/02/01 04:22:21;;;;;;;1.58;0.70;;;;;;;;;;21079894;28;20052;-59
2022/02/01 04:32:44;;;;;;;1.73;0.63;;;;;;;;;;21081106;28;20056;-59
2022/02/01 04:43:06;;;;;;;1.00;0.70;;;;;;;;;;21079600;28;20044;-55
2022/02/01 04:53:27;;;;;;;2.58;0.90;;;;;;;;;;21078204;28;20048;-58
2022/02/01 05:03:50;;;;;;;1.40;0.90;;;;;;;;;;21077873;28;20048;-53
2022/02/01 05:14:17;;;;;;;2.70;0.70;;;;;;;;;;21078804;28;20484;-54
2022/02/01 05:24:39;;;;;;;2.08;1.10;;;;;;;;;;21077862;28;20449;-53
2022/02/01 05:35:01;;;;;;;2.10;1.00;;;;;;;;;;21090378;28;20480;-53
2022/02/01 05:45:22;;;;;;;2.70;1.20;;;;;;;;;;21091255;28;20048;-53
2022/02/01 05:55:37;;;;;;;3.67;1.40;;;;;;;;;;21091040;28;20078;-54
2022/02/01 06:05:59;;;;;;;3.95;1.75;;;;;;;;;;21090305;28;20047;-53
2022/02/01 06:16:21;;;;;;;4.20;2.13;;;;;;;;;;21088897;28;20044;-54
2022/02/01 06:26:42;;;;;;;7.63;2.35;;;;;;;;;;21088317;28;20048;-58
2022/02/01 06:37:04;;;;;;;4.82;1.92;;;;;;;;;;21088347;28;20052;-55
2022/02/01 06:47:26;;;;;;;3.08;1.08;;;;;;;;;;21086071;28;20557;-57
2022/02/01 06:57:47;;;;;;;4.30;1.98;;;;;;;;;;21086483;28;20503;-59
2022/02/01 07:08:09;;;;;;;6.88;1.90;;;;;;;;;;21084431;28;20464;-53
2022/02/01 07:18:30;;;;;;;4.45;1.80;;;;;;;;;;21084843;28;20455;-55
2022/02/01 07:28:52;;;;;;;2.83;1.05;;;;;;;;;;21082126;28;20097;-55
2022/02/01 07:39:14;;;;;;;3.40;1.70;;;;;;;;;;21082164;28;20040;-54
2022/02/01 07:49:35;;;;;;;3.65;1.30;;;;;;;;;;21081092;28;20055;-59
2022/02/01 07:59:57;;;;;;;3.53;1.00;;;;;;;;;;21081566;28;20424;-55
2022/02/01 08:10:18;;;;;;;5.05;2.25;;;;;;;;;;21080144;28;20044;-58
2022/02/01 08:20:49;;;;;;;4.20;1.60;;;;;;;;;;21079044;28;20040;-60
2022/02/01 08:31:10;;;;;;;2.33;1.23;;;;;;;;;;21078890;28;20480;-59
2022/02/01 08:41:32;;;;;;;4.22;0.88;;;;;;;;;;21079863;28;20052;-59
2022/02/01 08:51:41;;;;;;;3.30;0.80;;;;;;;;;;21077880;28;20485;-59
2022/02/01 09:02:03;;;;;;;1.70;0.63;;;;;;;;;;21077706;28;20048;-55
2022/02/01 09:12:18;;;;;;;2.88;1.33;;;;;;;;;;21093378;28;20056;-58
2022/02/01 09:22:40;;;;;;;2.05;0.50;;;;;;;;;;21094421;28;20040;-55
2022/02/01 09:33:01;;;;;;;2.72;0.57;;;;;;;;;;21092331;28;20050;-53
2022/02/01 09:43:07;;;;;;;;;;;;;;;;;;21091914;28;20051;-56
2022/02/01 09:53:14;;;;;;;4.60;0.50;;;;;;;;;;21090947;28;19949;-58
2022/02/01 10:03:35;;;;;;;3.58;0.80;;;;;;;;;;21090363;28;20052;-58
2022/02/01 10:13:55;;;;;;;3.28;0.70;;;;;;;;;;21088796;28;20056;-55
2022/02/01 10:24:06;;;;;;;1.93;0.90;;;;;;;;;;21087822;28;20502;-54
2022/02/01 10:34:40;;;;;;;3.35;0.95;;;;;;;;;;21087156;28;20059;-59
2022/02/01 10:44:57;;;;;;;2.80;0.60;;;;;;;;;;21084886;28;20083;-52
2022/02/01 10:54:58;;;;;;;5.90;1.30;;;;;;;;;;21158632;28;20475;-52
2022/02/01 11:05:09;;;;;;;4.72;0.80;;;;;;;;;;21145628;28;20059;-54
2022/02/01 11:15:23;;;;;;;7.72;0.90;;;;;;;;;;21167613;28;20363;-55
2022/02/01 11:25:50;;;;;;;4.57;2.13;;;;;;;;;;21165830;28;20055;-51
2022/02/01 11:35:59;;;;;;;3.25;1.00;;;;;;;;;;21166205;28;20105;-62
2022/02/01 11:46:09;;;;;;;3.42;0.80;;;;;;;;;;21165313;28;20048;-54
2022/02/01 11:56:12;;;;;;;5.07;1.05;;;;;;;;;;21165669;28;20079;-59
2022/02/01 12:06:21;;;;;;;4.10;1.03;;;;;;;;;;21164206;28;20091;-64
2022/02/01 12:16:23;;;;;;;7.43;0.80;;;;;;;;;;21162126;28;20055;-53
2022/02/01 12:26:26;;;;;;;9.00;5.03;;;;;;;;;;21163773;28;20492;-54
2022/02/01 12:36:35;;;;;;;3.55;0.80;;;;;;;;;;21160992;28;20487;-59
2022/02/01 12:46:51;;;;;;;5.28;0.80;;;;;;;;;;21161221;28;20044;-63
2022/02/01 12:57:08;;;;;;;4.20;0.77;;;;;;;;;;21161326;28;20105;-59
2022/02/01 13:07:21;;;;;;;3.90;1.33;;;;;;;;;;21160847;28;20063;-60
2022/02/01 13:27:38;;;;;;;4.85;0.70;;;;;;;;;;21160504;28;20471;-61
2022/02/01 13:37:48;;;;;;;4.55;1.38;;;;;;;;;;21159246;28;20046;-61
2022/02/01 13:47:54;;;;;;;2.65;0.80;;;;;;;;;;21159202;28;20419;-60
2022/02/01 13:58:13;;;;;;;2.92;0.70;;;;;;;;;;21174173;28;20407;-54
2022/02/01 14:08:38;;;;;;;3.20;0.93;;;;;;;;;;21173285;28;20138;-63
2022/02/01 14:29:07;;;;;;;1.35;0.63;;;;;;;;;;21171360;28;20059;-61
2022/02/01 14:49:32;;;;;;;1.75;0.80;;;;;;;;;;21170667;28;20079;-53
2022/02/01 15:20:17;;;;;;;4.32;0.70;;;;;;;;;;20990940;28;20052;-61
2022/02/01 15:30:19;;;;;;;2.03;0.70;;;;;;;;;;20989358;28;20504;-60
2022/02/01 16:01:02;;;;;;;1.25;0.70;;;;;;;;;;21164742;28;20109;-62
2022/02/01 16:11:08;;;;;;;4.32;0.68;;;;;;;;;;21164498;28;20088;-61
2022/02/01 16:21:13;;;;;;;1.58;0.70;;;;;;;;;;21161991;28;20043;-65
2022/02/01 16:31:16;;;;;;;5.63;1.05;;;;;;;;;;21159559;28;20138;-58
2022/02/01 16:41:18;;;;;;;1.05;0.88;;;;;;;;;;21162179;27;20423;-62
2022/02/01 16:51:21;;;;;;;1.63;0.60;;;;;;;;;;21159942;28;20059;-65
2022/02/01 17:01:23;;;;;;;4.35;1.38;;;;;;;;;;21159917;28;20052;-58
2022/02/01 17:21:45;;;;;;;2.20;1.00;;;;;;;;;;21166259;28;20428;-65
2022/02/01 17:31:47;;;;;;;7.88;1.13;;;;;;;;;;21172998;28;20507;-55
2022/02/01 17:41:49;;;;;;;2.60;0.75;;;;;;;;;;21173488;28;20043;-61
2022/02/01 18:01:58;;;;;;;3.00;0.70;;;;;;;;;;21170990;28;20108;-59
2022/02/01 18:12:15;;;;;;;1.80;0.93;;;;;;;;;;21169190;28;20047;-62
2022/02/01 18:22:22;;;;;;;1.90;0.70;;;;;;;;;;21169565;28;20112;-59
2022/02/01 18:32:24;;;;;;;1.48;0.88;;;;;;;;;;21169986;27;20055;-54
2022/02/01 18:43:16;;;;;;;4.45;1.25;;;;;;;;;;21169384;28;20399;-57
2022/02/01 18:53:06;;;;;;;3.00;1.45;;;;;;;;;;21160526;28;20044;-60
2022/02/01 19:13:27;;;;;;;4.07;1.10;;;;;;;;;;21166412;28;20043;-53
2022/02/01 19:23:31;;;;;;;3.23;1.60;;;;;;;;;;21165273;28;20056;-56
2022/02/01 19:33:37;;;;;;;3.67;1.70;;;;;;;;;;21164807;28;20112;-63
2022/02/01 19:43:50;;;;;;;2.33;1.20;;;;;;;;;;21165163;28;20052;-63
2022/02/01 19:53:55;;;;;;;5.05;1.25;;;;;;;;;;21163778;28;20122;-58
2022/02/01 20:03:58;;;;;;;3.33;1.33;;;;;;;;;;21163546;28;20487;-58
2022/02/01 20:14:00;;;;;;;4.40;1.58;;;;;;;;;;21162700;28;20063;-60
2022/02/01 20:24:02;;;;;;;2.45;0.90;;;;;;;;;;21160862;28;20051;-59
2022/02/01 20:34:09;;;;;;;2.50;1.20;;;;;;;;;;21161288;28;20113;-57
2022/02/01 20:44:12;;;;;;;3.58;1.52;;;;;;;;;;21162906;28;20075;-59
2022/02/01 20:54:14;;;;;;;2.95;1.58;;;;;;;;;;21162403;28;20075;-60
2022/02/01 21:04:17;;;;;;;2.28;1.05;;;;;;;;;;21172593;28;20073;-55
2022/02/01 21:14:19;;;;;;;2.63;1.27;;;;;;;;;;21178804;28;20195;-59
2022/02/01 21:24:22;;;;;;;4.03;1.50;;;;;;;;;;21176879;28;20048;-60
2022/02/01 21:34:24;;;;;;;1.85;1.33;;;;;;;;;;21176563;28;20126;-59
2022/02/01 21:44:26;;;;;;;2.00;1.00;;;;;;;;;;21175477;28;20044;-60
2022/02/01 21:54:29;;;;;;;2.22;1.58;;;;;;;;;;21174991;27;20047;-58
2022/02/01 22:04:32;;;;;;;3.75;1.00;;;;;;;;;;21173950;28;20059;-59
2022/02/01 22:14:34;;;;;;;3.40;1.00;;;;;;;;;;21173852;28;20357;-59
2022/02/01 22:24:35;;;;;;;2.97;1.30;;;;;;;;;;21172390;28;20128;-58
2022/02/01 22:34:37;;;;;;;2.10;0.90;;;;;;;;;;21171672;28;20101;-57
2022/02/01 22:44:39;;;;;;;2.72;1.08;;;;;;;;;;21170914;28;20050;-59
2022/02/01 22:54:41;;;;;;;1.73;1.00;;;;;;;;;;21170745;28;20079;-57
2022/02/01 23:04:43;;;;;;;5.07;1.20;;;;;;;;;;21169977;28;20051;-57
2022/02/01 23:24:52;;;;;;;1.60;0.85;;;;;;;;;;21167098;28;20047;-58
2022/02/01 23:55:29;;;;;;;4.03;1.90;;;;;;;;;;21166414;28;20044;-58
